sensor_id;sensor_type;location;lat;lon;timestamp;pressure;altitude;pressure_sealevel;temperature;humidity
39491;BME280;25175;50.140;18.990;2023-03-14T00:00:55;97030.72;;;11.19;41.50
39491;BME280;25175;50.140;18.990;2023-03-14T00:04:00;96989.28;;;10.78;41.49
39491;BME280;25175;50.140;18.990;2023-03-14T00:07:10;97010.50;;;11.19;41.52
39491;BME280;25175;50.140;18.990;2023-03-14T00:10:15;97005.25;;;11.19;41.60
39491;BME280;25175;50.140;18.990;2023-03-14T00:13:19;96970.78;;;11.11;41.59
39491;BME280;25175;50.140;18.990;2023-03-14T00:16:27;96981.38;;;11.21;41.53
39491;BME280;25175;50.140;18.990;2023-03-14T00:19:31;96969.59;;;11.23;41.54
39491;BME280;25175;50.140;18.990;2023-03-14T00:22:37;96932.25;;;11.16;41.52
39491;BME280;25175;50.140;18.990;2023-03-14T00:25:42;96924.47;;;11.26;41.37
39491;BME280;25175;50.140;18.990;2023-03-14T00:28:51;96918.19;;;11.27;41.24
39491;BME280;25175;50.140;18.990;2023-03-14T00:31:59;96909.25;;;11.28;41.39
39491;BME280;25175;50.140;18.990;2023-03-14T00:35:05;96907.16;;;11.30;41.20
39491;BME280;25175;50.140;18.990;2023-03-14T00:38:10;96916.13;;;11.34;41.11
39491;BME280;25175;50.140;18.990;2023-03-14T00:41:18;96908.78;;;11.36;41.19
39491;BME280;25175;50.140;18.990;2023-03-14T00:44:23;96896.16;;;11.33;40.94
39491;BME280;25175;50.140;18.990;2023-03-14T00:47:31;96874.63;;;11.36;41.18
39491;BME280;25175;50.140;18.990;2023-03-14T00:50:36;96870.75;;;11.44;41.21
39491;BME280;25175;50.140;18.990;2023-03-14T00:53:43;96877.91;;;11.48;41.30
39491;BME280;25175;50.140;18.990;2023-03-14T00:56:49;96886.81;;;11.47;41.83
39491;BME280;25175;50.140;18.990;2023-03-14T00:59:54;96881.03;;;11.45;41.63
39491;BME280;25175;50.140;18.990;2023-03-14T01:03:01;96879.72;;;11.48;42.19
39491;BME280;25175;50.140;18.990;2023-03-14T01:06:10;96820.16;;;11.17;42.01
39491;BME280;25175;50.140;18.990;2023-03-14T01:09:17;96926.91;;;11.38;42.33
39491;BME280;25175;50.140;18.990;2023-03-14T01:12:23;96870.63;;;11.29;42.23
39491;BME280;25175;50.140;18.990;2023-03-14T01:15:27;96857.19;;;11.20;42.06
39491;BME280;25175;50.140;18.990;2023-03-14T01:18:36;96851.88;;;11.10;42.16
39491;BME280;25175;50.140;18.990;2023-03-14T01:21:42;96837.38;;;11.03;42.52
39491;BME280;25175;50.140;18.990;2023-03-14T01:24:47;96812.56;;;10.89;42.57
39491;BME280;25175;50.140;18.990;2023-03-14T01:27:51;96808.63;;;10.91;42.70
39491;BME280;25175;50.140;18.990;2023-03-14T01:31:02;96795.44;;;10.81;42.39
39491;BME280;25175;50.140;18.990;2023-03-14T01:34:09;96791.19;;;10.75;42.51
39491;BME280;25175;50.140;18.990;2023-03-14T01:37:15;96784.59;;;10.73;42.76
39491;BME280;25175;50.140;18.990;2023-03-14T01:40:20;96774.81;;;10.63;42.83
39491;BME280;25175;50.140;18.990;2023-03-14T01:43:26;96770.09;;;10.65;43.01
39491;BME280;25175;50.140;18.990;2023-03-14T01:46:38;96751.66;;;10.50;43.03
39491;BME280;25175;50.140;18.990;2023-03-14T01:49:53;96789.88;;;10.46;43.25
39491;BME280;25175;50.140;18.990;2023-03-14T01:53:01;96748.88;;;10.35;43.40
39491;BME280;25175;50.140;18.990;2023-03-14T01:56:10;96741.91;;;10.19;43.71
39491;BME280;25175;50.140;18.990;2023-03-14T01:59:17;96754.66;;;10.11;43.80
39491;BME280;25175;50.140;18.990;2023-03-14T02:02:24;96739.03;;;9.94;43.95
39491;BME280;25175;50.140;18.990;2023-03-14T02:05:37;96761.34;;;9.97;44.41
39491;BME280;25175;50.140;18.990;2023-03-14T02:08:50;96763.28;;;9.85;44.37
39491;BME280;25175;50.140;18.990;2023-03-14T02:11:59;96763.78;;;9.65;44.73
39491;BME280;25175;50.140;18.990;2023-03-14T02:15:24;96750.19;;;9.47;45.22
39491;BME280;25175;50.140;18.990;2023-03-14T02:18:36;96747.81;;;9.24;45.83
39491;BME280;25175;50.140;18.990;2023-03-14T02:22:09;96751.66;;;9.00;46.50
39491;BME280;25175;50.140;18.990;2023-03-14T02:25:32;96742.31;;;8.87;46.75
39491;BME280;25175;50.140;18.990;2023-03-14T02:28:47;96749.59;;;8.69;47.26
39491;BME280;25175;50.140;18.990;2023-03-14T02:31:55;96756.94;;;8.55;47.49
39491;BME280;25175;50.140;18.990;2023-03-14T02:35:06;96760.66;;;8.43;47.83
39491;BME280;25175;50.140;18.990;2023-03-14T02:38:20;96748.53;;;8.37;47.87
39491;BME280;25175;50.140;18.990;2023-03-14T02:41:32;96727.06;;;8.18;48.35
39491;BME280;25175;50.140;18.990;2023-03-14T02:44:52;96747.09;;;8.29;48.45
39491;BME280;25175;50.140;18.990;2023-03-14T02:48:04;96743.69;;;8.29;48.24
39491;BME280;25175;50.140;18.990;2023-03-14T02:51:14;96763.56;;;8.30;48.13
39491;BME280;25175;50.140;18.990;2023-03-14T02:54:23;96753.09;;;8.30;48.19
39491;BME280;25175;50.140;18.990;2023-03-14T02:57:28;96771.97;;;8.32;48.28
39491;BME280;25175;50.140;18.990;2023-03-14T03:00:36;96769.81;;;8.29;48.35
39491;BME280;25175;50.140;18.990;2023-03-14T03:03:42;96776.56;;;8.41;48.54
39491;BME280;25175;50.140;18.990;2023-03-14T03:06:47;96775.22;;;8.39;48.36
39491;BME280;25175;50.140;18.990;2023-03-14T03:09:52;96785.28;;;8.47;48.27
39491;BME280;25175;50.140;18.990;2023-03-14T03:12:57;96773.47;;;8.56;48.19
39491;BME280;25175;50.140;18.990;2023-03-14T03:16:05;96773.31;;;8.62;48.04
39491;BME280;25175;50.140;18.990;2023-03-14T03:19:11;96769.75;;;8.68;47.75
39491;BME280;25175;50.140;18.990;2023-03-14T03:22:16;96771.72;;;8.78;47.37
39491;BME280;25175;50.140;18.990;2023-03-14T03:25:22;96766.88;;;8.86;47.45
39491;BME280;25175;50.140;18.990;2023-03-14T03:28:26;96750.78;;;8.94;47.21
39491;BME280;25175;50.140;18.990;2023-03-14T03:31:36;96761.63;;;9.03;47.22
39491;BME280;25175;50.140;18.990;2023-03-14T03:34:43;96759.09;;;9.08;47.00
39491;BME280;25175;50.140;18.990;2023-03-14T03:37:48;96777.00;;;9.16;46.77
39491;BME280;25175;50.140;18.990;2023-03-14T03:40:52;96776.06;;;9.22;46.73
39491;BME280;25175;50.140;18.990;2023-03-14T03:44:02;96776.13;;;9.27;46.42
39491;BME280;25175;50.140;18.990;2023-03-14T03:47:10;96775.16;;;9.33;46.33
39491;BME280;25175;50.140;18.990;2023-03-14T03:50:15;96776.81;;;9.39;46.04
39491;BME280;25175;50.140;18.990;2023-03-14T03:53:20;96790.03;;;9.49;45.74
39491;BME280;25175;50.140;18.990;2023-03-14T03:56:26;96792.00;;;9.58;45.53
39491;BME280;25175;50.140;18.990;2023-03-14T03:59:30;96782.19;;;9.70;45.34
39491;BME280;25175;50.140;18.990;2023-03-14T04:02:38;96775.75;;;9.78;45.02
39491;BME280;25175;50.140;18.990;2023-03-14T04:05:45;96772.47;;;9.87;44.92
39491;BME280;25175;50.140;18.990;2023-03-14T04:08:50;96772.81;;;9.96;44.80
39491;BME280;25175;50.140;18.990;2023-03-14T04:12:13;96778.19;;;10.06;44.50
39491;BME280;25175;50.140;18.990;2023-03-14T04:15:31;96773.50;;;10.08;44.21
39491;BME280;25175;50.140;18.990;2023-03-14T04:18:45;96793.03;;;10.22;43.92
39491;BME280;25175;50.140;18.990;2023-03-14T04:21:51;96807.28;;;10.31;43.92
39491;BME280;25175;50.140;18.990;2023-03-14T04:24:57;96798.94;;;10.34;43.72
39491;BME280;25175;50.140;18.990;2023-03-14T04:28:06;96797.16;;;10.39;43.71
39491;BME280;25175;50.140;18.990;2023-03-14T04:31:13;96786.44;;;10.41;43.61
39491;BME280;25175;50.140;18.990;2023-03-14T04:34:23;96744.00;;;9.96;43.40
39491;BME280;25175;50.140;18.990;2023-03-14T04:37:30;96778.84;;;10.44;43.44
39491;BME280;25175;50.140;18.990;2023-03-14T04:40:36;96769.44;;;10.48;43.52
39491;BME280;25175;50.140;18.990;2023-03-14T04:43:41;96778.09;;;10.49;43.29
39491;BME280;25175;50.140;18.990;2023-03-14T04:46:48;96763.94;;;10.50;43.37
39491;BME280;25175;50.140;18.990;2023-03-14T04:49:55;96746.41;;;10.50;43.14
39491;BME280;25175;50.140;18.990;2023-03-14T04:53:01;96739.31;;;10.51;43.08
39491;BME280;25175;50.140;18.990;2023-03-14T04:56:07;96730.09;;;10.48;43.12
39491;BME280;25175;50.140;18.990;2023-03-14T04:59:16;96733.00;;;10.47;43.21
39491;BME280;25175;50.140;18.990;2023-03-14T05:02:21;96729.25;;;10.38;43.31
39491;BME280;25175;50.140;18.990;2023-03-14T05:05:58;96737.91;;;10.43;43.37
39491;BME280;25175;50.140;18.990;2023-03-14T05:09:21;96731.66;;;10.44;43.38
39491;BME280;25175;50.140;18.990;2023-03-14T05:12:47;96730.84;;;10.44;43.42
39491;BME280;25175;50.140;18.990;2023-03-14T05:16:11;96731.09;;;10.42;43.44
39491;BME280;25175;50.140;18.990;2023-03-14T05:19:31;96707.16;;;10.34;43.23
39491;BME280;25175;50.140;18.990;2023-03-14T05:22:49;96726.13;;;10.41;43.45
39491;BME280;25175;50.140;18.990;2023-03-14T05:26:17;96703.06;;;10.43;43.60
39491;BME280;25175;50.140;18.990;2023-03-14T05:29:47;96709.41;;;10.47;43.55
39491;BME280;25175;50.140;18.990;2023-03-14T05:33:06;96706.25;;;10.50;43.51
39491;BME280;25175;50.140;18.990;2023-03-14T05:36:21;96696.06;;;10.53;43.42
39491;BME280;25175;50.140;18.990;2023-03-14T05:39:56;96698.44;;;10.55;43.49
39491;BME280;25175;50.140;18.990;2023-03-14T05:43:11;96705.78;;;10.53;43.61
39491;BME280;25175;50.140;18.990;2023-03-14T05:46:17;96700.25;;;10.54;43.50
39491;BME280;25175;50.140;18.990;2023-03-14T05:49:27;96698.97;;;10.57;43.68
39491;BME280;25175;50.140;18.990;2023-03-14T05:52:45;96710.31;;;10.62;43.67
39491;BME280;25175;50.140;18.990;2023-03-14T05:56:19;96705.88;;;10.68;43.63
39491;BME280;25175;50.140;18.990;2023-03-14T05:59:43;96693.31;;;10.70;43.64
39491;BME280;25175;50.140;18.990;2023-03-14T06:03:10;96682.56;;;10.71;43.58
39491;BME280;25175;50.140;18.990;2023-03-14T06:06:20;96679.13;;;10.66;43.64
39491;BME280;25175;50.140;18.990;2023-03-14T06:09:24;96677.81;;;10.68;43.69
39491;BME280;25175;50.140;18.990;2023-03-14T06:12:35;96686.53;;;10.74;43.70
39491;BME280;25175;50.140;18.990;2023-03-14T06:15:40;96677.84;;;10.73;43.65
39491;BME280;25175;50.140;18.990;2023-03-14T06:18:46;96675.47;;;10.72;43.49
39491;BME280;25175;50.140;18.990;2023-03-14T06:21:53;96665.00;;;10.72;43.48
39491;BME280;25175;50.140;18.990;2023-03-14T06:25:00;96663.41;;;10.71;43.66
39491;BME280;25175;50.140;18.990;2023-03-14T06:28:08;96656.03;;;10.68;43.50
39491;BME280;25175;50.140;18.990;2023-03-14T06:31:13;96671.50;;;10.64;43.54
39491;BME280;25175;50.140;18.990;2023-03-14T06:34:26;96659.44;;;10.63;43.63
39491;BME280;25175;50.140;18.990;2023-03-14T06:37:32;96657.00;;;10.57;43.63
39491;BME280;25175;50.140;18.990;2023-03-14T06:40:38;96662.56;;;10.65;43.68
39491;BME280;25175;50.140;18.990;2023-03-14T06:43:50;96656.59;;;10.70;43.85
39491;BME280;25175;50.140;18.990;2023-03-14T06:46:55;96649.78;;;10.69;43.68
39491;BME280;25175;50.140;18.990;2023-03-14T06:50:02;96638.75;;;10.72;43.88
39491;BME280;25175;50.140;18.990;2023-03-14T06:53:08;96636.41;;;10.75;43.78
39491;BME280;25175;50.140;18.990;2023-03-14T06:56:17;96625.69;;;10.77;43.69
39491;BME280;25175;50.140;18.990;2023-03-14T06:59:25;96640.38;;;10.78;43.84
39491;BME280;25175;50.140;18.990;2023-03-14T07:02:30;96635.16;;;10.83;43.95
39491;BME280;25175;50.140;18.990;2023-03-14T07:05:36;96621.78;;;10.84;43.70
39491;BME280;25175;50.140;18.990;2023-03-14T07:08:42;96620.94;;;10.79;43.77
39491;BME280;25175;50.140;18.990;2023-03-14T07:11:46;96664.00;;;10.83;43.47
39491;BME280;25175;50.140;18.990;2023-03-14T07:14:55;96645.16;;;10.86;43.80
39491;BME280;25175;50.140;18.990;2023-03-14T07:18:00;96656.16;;;10.88;43.77
39491;BME280;25175;50.140;18.990;2023-03-14T07:21:06;96638.31;;;10.90;43.67
39491;BME280;25175;50.140;18.990;2023-03-14T07:24:13;96638.06;;;10.86;43.94
39491;BME280;25175;50.140;18.990;2023-03-14T07:27:18;96665.38;;;10.90;43.86
39491;BME280;25175;50.140;18.990;2023-03-14T07:30:26;96661.41;;;10.88;43.79
39491;BME280;25175;50.140;18.990;2023-03-14T07:33:34;96659.38;;;10.95;43.77
39491;BME280;25175;50.140;18.990;2023-03-14T07:36:39;96679.38;;;11.06;43.64
39491;BME280;25175;50.140;18.990;2023-03-14T07:39:44;96682.59;;;11.13;43.97
39491;BME280;25175;50.140;18.990;2023-03-14T07:42:57;96701.53;;;11.20;43.78
39491;BME280;25175;50.140;18.990;2023-03-14T07:46:14;96676.34;;;11.24;43.25
39491;BME280;25175;50.140;18.990;2023-03-14T07:49:19;96672.69;;;11.25;43.34
39491;BME280;25175;50.140;18.990;2023-03-14T07:52:24;96632.53;;;10.83;43.43
39491;BME280;25175;50.140;18.990;2023-03-14T07:55:28;96685.06;;;11.39;43.31
39491;BME280;25175;50.140;18.990;2023-03-14T07:58:35;96675.38;;;11.45;42.99
39491;BME280;25175;50.140;18.990;2023-03-14T08:01:42;96694.31;;;11.52;42.80
39491;BME280;25175;50.140;18.990;2023-03-14T08:04:47;96692.22;;;11.54;42.90
39491;BME280;25175;50.140;18.990;2023-03-14T08:07:52;96692.75;;;11.61;42.90
39491;BME280;25175;50.140;18.990;2023-03-14T08:11:02;96696.97;;;11.62;43.22
39491;BME280;25175;50.140;18.990;2023-03-14T08:14:09;96678.13;;;11.75;42.62
39491;BME280;25175;50.140;18.990;2023-03-14T08:17:18;96688.88;;;11.78;42.57
39491;BME280;25175;50.140;18.990;2023-03-14T08:20:25;96436.09;;;10.25;42.40
39491;BME280;25175;50.140;18.990;2023-03-14T08:23:32;96664.72;;;11.86;42.85
39491;BME280;25175;50.140;18.990;2023-03-14T08:26:36;96633.66;;;11.63;42.45
39491;BME280;25175;50.140;18.990;2023-03-14T08:29:41;96667.69;;;12.05;42.26
39491;BME280;25175;50.140;18.990;2023-03-14T08:32:48;96646.66;;;12.00;42.21
39491;BME280;25175;50.140;18.990;2023-03-14T08:35:55;96680.34;;;12.23;42.14
39491;BME280;25175;50.140;18.990;2023-03-14T08:39:01;96678.22;;;12.20;42.12
39491;BME280;25175;50.140;18.990;2023-03-14T08:42:09;96665.31;;;12.13;41.86
39491;BME280;25175;50.140;18.990;2023-03-14T08:45:15;96701.66;;;12.31;41.86
39491;BME280;25175;50.140;18.990;2023-03-14T08:48:24;96690.84;;;12.33;42.15
39491;BME280;25175;50.140;18.990;2023-03-14T08:51:30;96702.41;;;12.32;42.05
39491;BME280;25175;50.140;18.990;2023-03-14T08:54:35;96701.66;;;12.26;42.00
39491;BME280;25175;50.140;18.990;2023-03-14T08:57:39;96707.41;;;12.23;42.40
39491;BME280;25175;50.140;18.990;2023-03-14T09:00:44;96700.03;;;12.10;42.34
39491;BME280;25175;50.140;18.990;2023-03-14T09:03:52;96712.41;;;12.20;42.71
39491;BME280;25175;50.140;18.990;2023-03-14T09:06:57;96706.09;;;12.16;42.66
39491;BME280;25175;50.140;18.990;2023-03-14T09:10:01;96713.44;;;12.14;42.76
39491;BME280;25175;50.140;18.990;2023-03-14T09:13:07;96720.81;;;12.12;42.83
39491;BME280;25175;50.140;18.990;2023-03-14T09:16:11;96727.41;;;12.14;43.28
39491;BME280;25175;50.140;18.990;2023-03-14T09:19:19;96732.91;;;12.18;43.11
39491;BME280;25175;50.140;18.990;2023-03-14T09:22:23;96758.16;;;12.19;43.39
39491;BME280;25175;50.140;18.990;2023-03-14T09:25:29;96718.97;;;12.22;43.33
39491;BME280;25175;50.140;18.990;2023-03-14T09:28:33;96709.78;;;12.30;43.18
39491;BME280;25175;50.140;18.990;2023-03-14T09:31:39;96712.94;;;12.37;43.13
39491;BME280;25175;50.140;18.990;2023-03-14T09:34:46;96708.50;;;12.47;43.24
39491;BME280;25175;50.140;18.990;2023-03-14T09:37:51;96636.69;;;12.07;43.09
39491;BME280;25175;50.140;18.990;2023-03-14T09:40:59;96726.41;;;12.70;43.57
39491;BME280;25175;50.140;18.990;2023-03-14T09:44:12;96711.88;;;12.83;42.65
39491;BME280;25175;50.140;18.990;2023-03-14T09:47:21;96719.78;;;12.98;42.97
39491;BME280;25175;50.140;18.990;2023-03-14T09:50:38;96732.69;;;13.09;42.64
39491;BME280;25175;50.140;18.990;2023-03-14T09:53:48;96718.19;;;13.22;42.36
39491;BME280;25175;50.140;18.990;2023-03-14T09:56:54;96708.94;;;13.34;42.21
39491;BME280;25175;50.140;18.990;2023-03-14T10:00:04;96692.38;;;13.29;41.94
39491;BME280;25175;50.140;18.990;2023-03-14T10:03:25;96731.28;;;13.52;41.80
39491;BME280;25175;50.140;18.990;2023-03-14T10:06:35;96726.00;;;13.52;41.82
39491;BME280;25175;50.140;18.990;2023-03-14T10:09:43;96706.50;;;13.53;41.65
39491;BME280;25175;50.140;18.990;2023-03-14T10:12:56;96737.59;;;13.56;41.45
39491;BME280;25175;50.140;18.990;2023-03-14T10:16:04;96740.75;;;13.53;41.60
39491;BME280;25175;50.140;18.990;2023-03-14T10:19:12;96756.31;;;13.49;41.68
39491;BME280;25175;50.140;18.990;2023-03-14T10:22:23;96748.97;;;13.31;41.63
39491;BME280;25175;50.140;18.990;2023-03-14T10:25:32;96746.59;;;13.35;41.84
39491;BME280;25175;50.140;18.990;2023-03-14T10:28:42;96742.41;;;13.29;41.90
39491;BME280;25175;50.140;18.990;2023-03-14T10:31:52;96756.09;;;13.26;42.11
39491;BME280;25175;50.140;18.990;2023-03-14T10:35:18;96747.41;;;13.25;42.32
39491;BME280;25175;50.140;18.990;2023-03-14T10:38:30;96751.38;;;13.23;42.30
39491;BME280;25175;50.140;18.990;2023-03-14T10:41:36;96740.84;;;13.18;42.22
39491;BME280;25175;50.140;18.990;2023-03-14T10:44:41;96729.81;;;13.11;42.45
39491;BME280;25175;50.140;18.990;2023-03-14T10:47:49;96741.63;;;13.18;42.75
39491;BME280;25175;50.140;18.990;2023-03-14T10:50:57;96747.44;;;13.20;42.78
39491;BME280;25175;50.140;18.990;2023-03-14T10:54:20;96741.34;;;13.25;42.85
39491;BME280;25175;50.140;18.990;2023-03-14T10:57:26;96735.84;;;13.06;42.75
39491;BME280;25175;50.140;18.990;2023-03-14T11:00:32;96744.25;;;13.18;42.85
39491;BME280;25175;50.140;18.990;2023-03-14T11:03:42;96751.38;;;13.18;42.74
39491;BME280;25175;50.140;18.990;2023-03-14T11:07:03;96752.44;;;13.12;42.77
39491;BME280;25175;50.140;18.990;2023-03-14T11:10:21;96755.34;;;13.10;43.16
39491;BME280;25175;50.140;18.990;2023-03-14T11:13:39;96755.34;;;13.05;43.29
39491;BME280;25175;50.140;18.990;2023-03-14T11:16:54;96754.03;;;13.03;43.73
39491;BME280;25175;50.140;18.990;2023-03-14T11:20:23;96744.53;;;12.97;44.28
39491;BME280;25175;50.140;18.990;2023-03-14T11:23:48;96757.69;;;12.97;44.54
39491;BME280;25175;50.140;18.990;2023-03-14T11:27:16;96720.88;;;12.67;44.69
39491;BME280;25175;50.140;18.990;2023-03-14T11:30:32;96738.22;;;12.68;45.19
39491;BME280;25175;50.140;18.990;2023-03-14T11:33:49;96755.06;;;12.67;45.28
39491;BME280;25175;50.140;18.990;2023-03-14T11:37:05;96743.50;;;12.63;45.62
39491;BME280;25175;50.140;18.990;2023-03-14T11:40:18;96742.69;;;12.52;46.17
39491;BME280;25175;50.140;18.990;2023-03-14T11:43:29;96768.16;;;12.32;46.19
39491;BME280;25175;50.140;18.990;2023-03-14T11:46:43;96753.47;;;12.51;46.59
39491;BME280;25175;50.140;18.990;2023-03-14T11:49:56;96755.56;;;12.49;46.61
39491;BME280;25175;50.140;18.990;2023-03-14T11:53:12;96751.38;;;12.48;46.28
39491;BME280;25175;50.140;18.990;2023-03-14T11:56:28;96731.63;;;12.40;45.98
39491;BME280;25175;50.140;18.990;2023-03-14T11:59:51;96735.06;;;12.41;46.44
39491;BME280;25175;50.140;18.990;2023-03-14T12:03:11;96733.19;;;12.41;46.35
39491;BME280;25175;50.140;18.990;2023-03-14T12:06:31;96728.97;;;12.35;45.44
39491;BME280;25175;50.140;18.990;2023-03-14T12:09:44;96726.09;;;12.32;45.76
39491;BME280;25175;50.140;18.990;2023-03-14T12:12:51;96719.25;;;12.31;45.72
39491;BME280;25175;50.140;18.990;2023-03-14T12:16:00;96712.16;;;12.31;45.85
39491;BME280;25175;50.140;18.990;2023-03-14T12:19:35;96712.41;;;12.30;45.58
39491;BME280;25175;50.140;18.990;2023-03-14T12:22:44;96708.47;;;12.27;45.45
39491;BME280;25175;50.140;18.990;2023-03-14T12:26:08;96705.84;;;12.27;45.47
39491;BME280;25175;50.140;18.990;2023-03-14T12:29:18;96711.88;;;12.28;45.73
39491;BME280;25175;50.140;18.990;2023-03-14T12:32:26;96708.19;;;12.19;45.90
39491;BME280;25175;50.140;18.990;2023-03-14T12:35:35;96719.25;;;12.21;45.95
39491;BME280;25175;50.140;18.990;2023-03-14T12:38:49;96642.38;;;11.84;46.17
39491;BME280;25175;50.140;18.990;2023-03-14T12:42:14;96715.81;;;12.30;46.16
39491;BME280;25175;50.140;18.990;2023-03-14T12:45:28;96707.16;;;12.30;46.24
39491;BME280;25175;50.140;18.990;2023-03-14T12:48:39;96713.19;;;12.30;46.82
39491;BME280;25175;50.140;18.990;2023-03-14T12:51:45;96697.16;;;12.27;47.01
39491;BME280;25175;50.140;18.990;2023-03-14T12:54:58;96704.00;;;12.28;47.35
39491;BME280;25175;50.140;18.990;2023-03-14T12:58:19;96710.59;;;12.25;47.53
39491;BME280;25175;50.140;18.990;2023-03-14T13:01:35;96717.66;;;12.20;48.03
39491;BME280;25175;50.140;18.990;2023-03-14T13:04:49;96711.06;;;12.12;48.50
39491;BME280;25175;50.140;18.990;2023-03-14T13:08:09;96667.84;;;11.68;49.00
39491;BME280;25175;50.140;18.990;2023-03-14T13:11:16;96724.47;;;12.01;49.51
39491;BME280;25175;50.140;18.990;2023-03-14T13:14:23;96709.41;;;11.91;49.71
39491;BME280;25175;50.140;18.990;2023-03-14T13:17:32;96724.41;;;11.91;50.28
39491;BME280;25175;50.140;18.990;2023-03-14T13:20:45;96585.91;;;10.95;50.55
39491;BME280;25175;50.140;18.990;2023-03-14T13:23:58;96731.72;;;11.79;51.13
39491;BME280;25175;50.140;18.990;2023-03-14T13:27:03;96729.59;;;11.76;51.18
39491;BME280;25175;50.140;18.990;2023-03-14T13:30:19;96735.13;;;11.74;51.45
39491;BME280;25175;50.140;18.990;2023-03-14T13:33:26;96742.19;;;11.64;51.79
39491;BME280;25175;50.140;18.990;2023-03-14T13:36:35;96756.09;;;11.64;52.63
39491;BME280;25175;50.140;18.990;2023-03-14T13:39:40;96746.59;;;11.58;53.09
39491;BME280;25175;50.140;18.990;2023-03-14T13:42:46;96750.53;;;11.56;53.43
39491;BME280;25175;50.140;18.990;2023-03-14T13:45:54;96760.50;;;11.54;53.69
39491;BME280;25175;50.140;18.990;2023-03-14T13:49:03;96700.44;;;11.16;54.28
39491;BME280;25175;50.140;18.990;2023-03-14T13:52:28;96765.75;;;11.49;54.23
39491;BME280;25175;50.140;18.990;2023-03-14T13:55:35;96766.22;;;11.41;54.63
39491;BME280;25175;50.140;18.990;2023-03-14T13:58:41;96778.03;;;11.38;54.88
39491;BME280;25175;50.140;18.990;2023-03-14T14:01:47;96749.84;;;11.29;55.13
39491;BME280;25175;50.140;18.990;2023-03-14T14:04:54;96792.47;;;11.36;55.20
39491;BME280;25175;50.140;18.990;2023-03-14T14:08:03;96751.47;;;11.30;55.32
39491;BME280;25175;50.140;18.990;2023-03-14T14:11:18;96763.03;;;11.34;55.38
39491;BME280;25175;50.140;18.990;2023-03-14T14:14:32;96764.84;;;11.28;55.54
39491;BME280;25175;50.140;18.990;2023-03-14T14:17:44;96767.19;;;11.25;55.66
39491;BME280;25175;50.140;18.990;2023-03-14T14:20:55;96762.44;;;11.22;56.09
39491;BME280;25175;50.140;18.990;2023-03-14T14:24:03;96748.22;;;11.13;56.37
39491;BME280;25175;50.140;18.990;2023-03-14T14:27:14;96752.94;;;11.16;56.60
39491;BME280;25175;50.140;18.990;2023-03-14T14:30:29;96753.97;;;11.10;57.05
39491;BME280;25175;50.140;18.990;2023-03-14T14:33:39;96725.84;;;11.05;57.29
39491;BME280;25175;50.140;18.990;2023-03-14T14:36:45;96717.69;;;11.07;57.54
39491;BME280;25175;50.140;18.990;2023-03-14T14:39:57;96711.72;;;11.11;57.70
39491;BME280;25175;50.140;18.990;2023-03-14T14:43:05;96715.88;;;11.07;57.40
39491;BME280;25175;50.140;18.990;2023-03-14T14:46:18;96720.06;;;11.03;57.08
39491;BME280;25175;50.140;18.990;2023-03-14T14:49:29;96699.84;;;11.04;57.60
39491;BME280;25175;50.140;18.990;2023-03-14T14:52:41;96708.53;;;11.04;57.47
39491;BME280;25175;50.140;18.990;2023-03-14T14:55:53;96705.34;;;11.02;57.57
39491;BME280;25175;50.140;18.990;2023-03-14T14:59:01;96679.88;;;10.98;57.52
39491;BME280;25175;50.140;18.990;2023-03-14T15:02:29;96698.50;;;10.96;57.59
39491;BME280;25175;50.140;18.990;2023-03-14T15:05:41;96700.59;;;10.94;57.57
39491;BME280;25175;50.140;18.990;2023-03-14T15:08:48;96710.84;;;10.96;57.39
39491;BME280;25175;50.140;18.990;2023-03-14T15:11:56;96689.97;;;10.79;57.37
39491;BME280;25175;50.140;18.990;2023-03-14T15:15:01;96717.13;;;10.95;57.34
39491;BME280;25175;50.140;18.990;2023-03-14T15:18:12;96707.16;;;10.97;57.38
39491;BME280;25175;50.140;18.990;2023-03-14T15:21:18;96716.38;;;10.99;57.40
39491;BME280;25175;50.140;18.990;2023-03-14T15:24:24;96717.16;;;11.00;57.54
39491;BME280;25175;50.140;18.990;2023-03-14T15:27:32;96715.56;;;10.99;57.40
39491;BME280;25175;50.140;18.990;2023-03-14T15:30:37;96705.31;;;10.97;57.58
39491;BME280;25175;50.140;18.990;2023-03-14T15:33:42;96712.91;;;10.94;57.44
39491;BME280;25175;50.140;18.990;2023-03-14T15:36:47;96709.16;;;10.90;57.74
39491;BME280;25175;50.140;18.990;2023-03-14T15:39:52;96693.44;;;10.85;57.89
39491;BME280;25175;50.140;18.990;2023-03-14T15:43:03;96693.91;;;10.82;58.10
39491;BME280;25175;50.140;18.990;2023-03-14T15:46:08;96704.94;;;10.84;58.28
39491;BME280;25175;50.140;18.990;2023-03-14T15:49:14;96704.44;;;10.87;57.80
39491;BME280;25175;50.140;18.990;2023-03-14T15:52:18;96683.66;;;10.80;57.98
39491;BME280;25175;50.140;18.990;2023-03-14T15:55:23;96687.16;;;10.91;57.57
39491;BME280;25175;50.140;18.990;2023-03-14T15:58:30;96675.06;;;10.90;57.62
39491;BME280;25175;50.140;18.990;2023-03-14T16:01:36;96658.25;;;10.86;57.50
39491;BME280;25175;50.140;18.990;2023-03-14T16:04:40;96641.97;;;10.84;57.69
39491;BME280;25175;50.140;18.990;2023-03-14T16:07:45;96660.34;;;10.84;57.78
39491;BME280;25175;50.140;18.990;2023-03-14T16:10:51;96658.22;;;10.81;57.62
39491;BME280;25175;50.140;18.990;2023-03-14T16:13:59;96655.34;;;10.77;57.78
39491;BME280;25175;50.140;18.990;2023-03-14T16:17:03;96661.88;;;10.75;58.03
39491;BME280;25175;50.140;18.990;2023-03-14T16:20:12;96664.47;;;10.70;57.92
39491;BME280;25175;50.140;18.990;2023-03-14T16:23:20;96663.91;;;10.68;57.94
39491;BME280;25175;50.140;18.990;2023-03-14T16:26:25;96677.53;;;10.65;58.06
39491;BME280;25175;50.140;18.990;2023-03-14T16:29:32;96694.84;;;10.66;58.01
39491;BME280;25175;50.140;18.990;2023-03-14T16:32:37;96629.25;;;10.24;57.96